Flight Track Log - Related Links

Times and Time Zones

All times are in EDT time to prevent confusion due to time zone crossing. See the SWA1796 flight status page for this flight to view local times or setup timezone preferences in your user account.

Time Position Orientation Groundspeed Altitude Reporting Facility
EDT Latitude Longitude Course Direction KTS MPH feet Rate Location/Type
Sun 09:45:01 AM 40.7711 -111.9744 176° South 147 169 5,400  Level Salt Lake Center
Sun 09:45:13 AM 40.7647 -111.9739 176° South 149 171 5,600 1,364 Climbing Salt Lake Center
Sun 09:45:23 AM 40.7561 -111.9719 170° South 155 178 5,900 2,113 Climbing Salt Lake Center
Sun 09:46:24 AM 40.7000 -111.9694 178° South 203 234 8,100 2,410 Climbing Salt Lake Center
Sun 09:47:25 AM 40.6258 -111.9642 177° South 280 322 10,800 2,803 Climbing Salt Lake Center
Sun 09:48:26 AM 40.5356 -111.9575 177° South 330 380 13,800 2,976 Climbing Salt Lake Center
Sun 09:49:28 AM 40.4383 -111.9517 177° South 349 402 16,900 2,829 Climbing Salt Lake Center
Sun 09:50:29 AM 40.3347 -111.9431 176° South 370 426 19,600 2,852 Climbing Salt Lake Center
Sun 09:51:30 AM 40.2275 -111.9458 181° South 385 443 22,700 2,705 Climbing Salt Lake Center
Sun 09:52:31 AM 40.1189 -111.9625 187° South 390 449 25,100 2,115 Climbing Salt Lake Center
Sun 09:53:32 AM 40.0050 -111.9794 187° South 413 475 27,000 1,918 Climbing Salt Lake Center
Sun 09:54:33 AM 39.8767 -112.0594 206° Southwest 430 495 29,000 2,164 Climbing Salt Lake Center
Sun 09:55:34 AM 39.7731 -112.1394 211° Southwest 434 499 31,400 2,311 Climbing Salt Lake Center
Sun 09:56:35 AM 39.6725 -112.2164 211° Southwest 424 488 33,700 1,820 Climbing Salt Lake Center
Sun 09:57:36 AM 39.5747 -112.2908 210° Southwest 409 471 35,100 1,475 Climbing Salt Lake Center
Sun 09:58:37 AM 39.4742 -112.3692 211° Southwest 417 480 36,700 1,230 Climbing Salt Lake Center
Sun 09:59:38 AM 39.3739 -112.4461 211° Southwest 419 482 37,600 634 Climbing Salt Lake Center
Sun 10:00:40 AM 39.2736 -112.5181 209° Southwest 418 481 38,000 195 Climbing Salt Lake Center
Sun 10:01:41 AM 39.1714 -112.5950 210° Southwest 419 482 38,000  Level Salt Lake Center
Sun 10:02:42 AM 39.0692 -112.6697 210° Southwest 425 489 38,000  Level Salt Lake Center
Sun 10:03:43 AM 38.9689 -112.7444 210° Southwest 421 484 38,000  Level Salt Lake Center
Sun 10:04:44 AM 38.8697 -112.8189 210° Southwest 416 479 38,000  Level Salt Lake Center
Sun 10:05:45 AM 38.7511 -112.9089 211° Southwest 416 479 38,000  Level Salt Lake Center
Sun 10:06:46 AM 38.6508 -112.9844 210° Southwest 416 479 38,000  Level Salt Lake Center
Sun 10:07:47 AM 38.5514 -113.0578 210° Southwest 416 479 38,000  Level Salt Lake Center
Sun 10:08:49 AM 38.4522 -113.1300 210° Southwest 416 479 38,000  Level Salt Lake Center
Sun 10:09:50 AM 38.3547 -113.2014 210° Southwest 412 474 38,000  Level Salt Lake Center
Sun 10:10:51 AM 38.2539 -113.2733 209° Southwest 414 476 38,000  Level Salt Lake Center
Sun 10:11:52 AM 38.1544 -113.3469 210° Southwest 415 478 38,000  Level Salt Lake Center
Sun 10:12:53 AM 38.0531 -113.4203 210° Southwest 420 483 38,000  Level Salt Lake Center
Sun 10:13:54 AM 37.9508 -113.4933 209° Southwest 420 483 38,000  Level Salt Lake Center
Sun 10:14:55 AM 37.8300 -113.5808 210° Southwest 420 483 38,000  Level Salt Lake Center
Sun 10:15:57 AM 37.7300 -113.6536 210° Southwest 420 483 38,000  Level Salt Lake Center
Sun 10:16:58 AM 37.6303 -113.7247 209° Southwest 420 483 38,000  Level Salt Lake Center
Sun 10:17:44 AM 37.5506 -113.7789 208° Southwest 414 476 38,000  Level Los Angeles Center
Sun 10:18:45 AM 37.4511 -113.8497 209° Southwest 414 476 38,000  Level Los Angeles Center
Sun 10:19:46 AM 37.3514 -113.9197 209° Southwest 414 476 38,000  Level Los Angeles Center
Sun 10:20:48 AM 37.2547 -113.9878 209° Southwest 413 475 38,000  Level Los Angeles Center
Sun 10:21:49 AM 37.1550 -114.0594 210° Southwest 412 474 38,000  Level Los Angeles Center
Sun 10:22:50 AM 37.0544 -114.1283 209° Southwest 412 474 38,000  Level Los Angeles Center
Sun 10:23:51 AM 36.9544 -114.1994 210° Southwest 412 474 38,000  Level Los Angeles Center
Sun 10:24:52 AM 36.8331 -114.2844 209° Southwest 413 475 38,000  Level Los Angeles Center
Sun 10:25:53 AM 36.7328 -114.3553 210° Southwest 413 475 38,000  Level Los Angeles Center
Sun 10:26:55 AM 36.6328 -114.4239 209° Southwest 413 475 38,000  Level Los Angeles Center
Sun 10:27:56 AM 36.5336 -114.4936 209° Southwest 411 473 38,000  Level Los Angeles Center
Sun 10:28:57 AM 36.4336 -114.5625 209° Southwest 410 472 38,000  Level Los Angeles Center
Sun 10:29:58 AM 36.3342 -114.6314 209° Southwest 409 471 38,000  Level Los Angeles Center
Sun 10:30:59 AM 36.2347 -114.6997 209° Southwest 408 470 38,000  Level Los Angeles Center
Sun 10:32:00 AM 36.1353 -114.7683 209° Southwest 408 470 38,000  Level Los Angeles Center
Sun 10:33:02 AM 36.0353 -114.8356 209° Southwest 407 468 38,000  Level Los Angeles Center
Sun 10:34:03 AM 35.9506 -114.9222 220° Southwest 398 458 38,000  Level Los Angeles Center
Sun 10:35:04 AM 35.8717 -115.0167 224° Southwest 396 456 38,000  Level Los Angeles Center
Sun 10:36:05 AM 35.7944 -115.1131 225° Southwest 395 455 38,000  Level Los Angeles Center
Sun 10:37:06 AM 35.7156 -115.2094 225° Southwest 395 455 38,000  Level Los Angeles Center
Sun 10:38:08 AM 35.6372 -115.3053 225° Southwest 396 456 38,000  Level Los Angeles Center
Sun 10:39:09 AM 35.5575 -115.4014 224° Southwest 396 456 38,000 -443 Level Los Angeles Center
Sun 10:40:10 AM 35.4631 -115.5161 225° Southwest 398 458 37,100 -885 Descending Los Angeles Center
Sun 10:41:11 AM 35.3947 -115.5989 225° Southwest 395 455 36,200 -878 Descending Los Angeles Center
Sun 10:42:13 AM 35.3147 -115.6931 224° Southwest 396 456 35,300 -927 Descending Los Angeles Center
Sun 10:43:14 AM 35.2358 -115.7881 225° Southwest 397 457 34,300 -639 Descending Los Angeles Center
Sun 10:44:15 AM 35.1572 -115.8828 225° Southwest 397 457 34,000 -148 Descending Los Angeles Center
Sun 10:45:16 AM 35.0786 -115.9756 224° Southwest 397 457 34,000  Level Los Angeles Center
Sun 10:46:18 AM 34.9842 -116.0875 224° Southwest 394 453 34,000  Level Los Angeles Center
Sun 10:47:19 AM 34.9056 -116.1806 224° Southwest 394 453 34,000  Level Los Angeles Center
Sun 10:48:20 AM 34.8261 -116.2733 224° Southwest 394 453 34,000  Level Los Angeles Center
Sun 10:49:21 AM 34.7464 -116.3664 224° Southwest 394 453 34,000 -49 Level Los Angeles Center
Sun 10:50:23 AM 34.6667 -116.4600 224° Southwest 396 456 33,900 -878 Descending Los Angeles Center
Sun 10:51:24 AM 34.5864 -116.5536 224° Southwest 398 458 32,200 -2,066 Descending Los Angeles Center
Sun 10:52:25 AM 34.5058 -116.6456 223° Southwest 398 458 29,700 -2,361 Descending Los Angeles Center
Sun 10:53:26 AM 34.4286 -116.7361 224° Southwest 388 447 27,400 -2,146 Descending Los Angeles Center
Sun 10:54:28 AM 34.3539 -116.8225 224° Southwest 374 430 25,300 -2,146 Descending Los Angeles Center
Sun 10:55:29 AM 34.2808 -116.9083 224° Southwest 368 423 23,000 -2,213 Descending Los Angeles Center
Sun 10:56:30 AM 34.2086 -116.9908 223° Southwest 360 414 20,800 -2,361 Descending Los Angeles Center
Sun 10:57:31 AM 34.1211 -117.0919 224° Southwest 355 409 18,200 -1,563 Descending Los Angeles Center
Sun 10:58:29 AM 34.0667 -117.1833 234° Southwest 348 400 17,700 -1,016 Descending Southern California TRACON
Sun 10:59:35 AM 34.0500 -117.3000 260° West 324 373 16,100 -1,619 Descending Southern California TRACON
Sun 11:00:35 AM 34.0333 -117.4167 260° West 304 350 14,300 -1,789 Descending Southern California TRACON
Sun 11:01:29 AM 34.0167 -117.5000 256° West 301 346 12,700 -1,632 Descending Southern California TRACON
Sun 11:02:29 AM 34.0167 -117.6000 270° West 364 419 11,200 -1,400 Descending Southern California TRACON
Sun 11:03:29 AM 34.0000 -117.7000 259° West 286 329 9,900 -1,300 Descending Southern California TRACON
Sun 11:04:29 AM 34.0000 -117.7833 270° West 279 321 8,600 -1,190 Descending Southern California TRACON
Sun 11:05:35 AM 34.0000 -117.9000 270° West 283 326 7,400 -1,143 Descending Southern California TRACON
Sun 11:06:35 AM 34.0000 -117.9833 270° West 280 322 6,200 -1,100 Descending Southern California TRACON
Sun 11:07:35 AM 33.9833 -118.0833 259° West 270 311 5,200 -1,053 Descending Southern California TRACON
Sun 11:08:29 AM 33.9833 -118.1500 270° West 242 278 4,200 -1,200 Descending Southern California TRACON
Sun 11:09:35 AM 33.9667 -118.2333 256° West 227 261 2,800 -1,150 Descending Southern California TRACON
Sun 11:10:29 AM 33.9667 -118.3000 270° West 188 216 1,900 -895 Descending Southern California TRACON
Sun 11:11:29 AM 33.9500 -118.3500 248° West 140 161 1,100 -750 Descending Southern California TRACON
Sun 11:12:53 AM 33.9522 -118.4069 273° West 146 168 100 -714 Descending Los Angeles Center
Sun 11:14:00 AM 33.9425 -118.4081 259° West  Level Estimated
Sun 11:21:00 AM 33.9425 -118.4081 259° West  Level Estimated

Login

Don't have an account? Register now (free) for customized features, flight alerts, and more!